Time;durP1;ratioP1;P1;durP2;ratioP2;P2;SDS_P1;SDS_P2;PMS_P1;PMS_P2;Temp;Humidity;BMP_temperature;BMP_pressure;BME280_temperature;BME280_humidity;BME280_pressure;Samples;Min_cycle;Max_cycle;Signal;HPM_P1;HPM_P2
2023/06/21 00:01:38;;;;;;;7.10;4.80;;;;;;;;;;4989487;28;20133;-70
2023/06/21 00:04:05;;;;;;;7.68;4.70;;;;;;;;;;4993302;28;20129;-70
2023/06/21 00:06:30;;;;;;;6.50;5.32;;;;;;;;;;4995216;28;20026;-71
2023/06/21 00:08:57;;;;;;;7.47;5.03;;;;;;;;;;4995286;28;20038;-70
2023/06/21 00:11:23;;;;;;;7.15;4.80;;;;;;;;;;4991121;28;20831;-72
2023/06/21 00:13:52;;;;;;;6.78;5.25;;;;;;;;;;4993023;28;20034;-72
2023/06/21 00:16:19;;;;;;;7.05;5.60;;;;;;;;;;4997209;28;20027;-71
2023/06/21 00:18:45;;;;;;;8.80;5.32;;;;;;;;;;4990336;28;20030;-71
2023/06/21 00:21:10;;;;;;;7.20;5.53;;;;;;;;;;4991314;28;20042;-71
2023/06/21 00:23:36;;;;;;;7.35;5.50;;;;;;;;;;4996613;28;20123;-71
2023/06/21 00:26:02;;;;;;;11.73;5.40;;;;;;;;;;4988878;28;20033;-71
2023/06/21 00:28:27;;;;;;;7.38;5.72;;;;;;;;;;4994553;28;20427;-70
2023/06/21 00:30:53;;;;;;;10.77;5.90;;;;;;;;;;4986790;28;20037;-70
2023/06/21 00:33:19;;;;;;;7.60;5.85;;;;;;;;;;4994058;28;20038;-71
2023/06/21 00:35:44;;;;;;;9.40;6.00;;;;;;;;;;4993742;28;20022;-69
2023/06/21 00:38:12;;;;;;;8.73;5.05;;;;;;;;;;4990415;28;20038;-71
2023/06/21 00:40:41;;;;;;;8.85;5.45;;;;;;;;;;4989192;28;20114;-70
2023/06/21 00:43:07;;;;;;;6.65;5.60;;;;;;;;;;5003686;28;20554;-70
2023/06/21 00:45:38;;;;;;;8.70;6.13;;;;;;;;;;4988705;28;20113;-69
2023/06/21 00:48:04;;;;;;;8.55;5.68;;;;;;;;;;4993712;28;20034;-70
2023/06/21 00:50:30;;;;;;;9.32;6.15;;;;;;;;;;4997411;28;20492;-70
2023/06/21 00:52:55;;;;;;;7.38;5.90;;;;;;;;;;4989072;28;20034;-69
2023/06/21 00:55:23;;;;;;;7.20;5.63;;;;;;;;;;4987959;28;20369;-70
2023/06/21 00:57:50;;;;;;;10.38;6.50;;;;;;;;;;4990806;28;20388;-71
2023/06/21 01:00:22;;;;;;;9.52;6.00;;;;;;;;;;4990155;28;20022;-70
2023/06/21 01:02:51;;;;;;;6.88;5.55;;;;;;;;;;4989130;28;20034;-71
2023/06/21 01:05:17;;;;;;;7.30;6.30;;;;;;;;;;4994038;28;20057;-71
2023/06/21 01:08:00;;;;;;;10.02;6.20;;;;;;;;;;4972898;28;20030;-71
2023/06/21 01:10:36;;;;;;;10.43;5.90;;;;;;;;;;4986621;28;20591;-70
2023/06/21 01:13:29;;;;;;;8.30;5.63;;;;;;;;;;4994233;28;20038;-69
2023/06/21 01:16:05;;;;;;;9.15;6.53;;;;;;;;;;4993937;28;20038;-71
2023/06/21 01:18:34;;;;;;;8.88;6.22;;;;;;;;;;4993226;28;20030;-70
2023/06/21 01:21:06;;;;;;;9.70;6.38;;;;;;;;;;4988058;28;20038;-72
2023/06/21 01:23:43;;;;;;;10.77;6.53;;;;;;;;;;4995643;28;20544;-71
2023/06/21 01:26:37;;;;;;;8.88;6.50;;;;;;;;;;4989391;28;20127;-71
2023/06/21 01:29:14;;;;;;;;;;;;;;;;;;4988995;28;20088;-69
2023/06/21 01:31:43;;;;;;;8.07;6.25;;;;;;;;;;4987358;28;19949;-69
2023/06/21 01:34:09;;;;;;;9.73;6.35;;;;;;;;;;4990212;28;20022;-70
2023/06/21 01:36:39;;;;;;;7.32;5.90;;;;;;;;;;4995000;28;20392;-70
2023/06/21 01:39:12;;;;;;;8.38;6.60;;;;;;;;;;4993700;28;20452;-69
2023/06/21 01:41:38;;;;;;;13.10;6.82;;;;;;;;;;4993398;28;20038;-70
2023/06/21 01:44:09;;;;;;;8.48;6.38;;;;;;;;;;4987589;28;20377;-69
2023/06/21 01:46:36;;;;;;;8.02;6.70;;;;;;;;;;4989866;28;20030;-70
2023/06/21 01:49:09;;;;;;;8.93;6.50;;;;;;;;;;4991455;28;20633;-70
2023/06/21 01:51:40;;;;;;;8.05;6.30;;;;;;;;;;4989528;28;20022;-71
2023/06/21 01:54:06;;;;;;;9.32;6.78;;;;;;;;;;4992622;28;20585;-69
2023/06/21 01:56:34;;;;;;;9.13;6.93;;;;;;;;;;4986860;28;20034;-69
2023/06/21 01:59:01;;;;;;;9.10;6.78;;;;;;;;;;4987238;28;20090;-69
2023/06/21 02:01:28;;;;;;;12.23;6.97;;;;;;;;;;4984680;28;20032;-70
2023/06/21 02:03:59;;;;;;;9.50;7.03;;;;;;;;;;4987791;28;20064;-69
2023/06/21 02:06:29;;;;;;;9.05;6.93;;;;;;;;;;4989742;28;20484;-69
2023/06/21 02:08:59;;;;;;;9.60;7.28;;;;;;;;;;4990501;28;20432;-70
2023/06/21 02:11:26;;;;;;;9.30;7.47;;;;;;;;;;4993884;28;20072;-69
2023/06/21 02:13:52;;;;;;;7.13;6.20;;;;;;;;;;4992993;28;20021;-69
2023/06/21 02:16:24;;;;;;;9.63;6.85;;;;;;;;;;4995672;28;20763;-68
2023/06/21 02:18:50;;;;;;;10.23;7.22;;;;;;;;;;4993396;28;20125;-69
2023/06/21 02:21:15;;;;;;;10.40;7.28;;;;;;;;;;4989637;28;20124;-69
2023/06/21 02:23:42;;;;;;;10.73;6.53;;;;;;;;;;4987997;28;20022;-70
2023/06/21 02:26:10;;;;;;;9.05;6.90;;;;;;;;;;4989600;28;20038;-69
2023/06/21 02:28:36;;;;;;;9.32;7.30;;;;;;;;;;4986462;28;20108;-70
2023/06/21 02:31:02;;;;;;;15.27;7.85;;;;;;;;;;4990240;28;20038;-69
2023/06/21 02:33:27;;;;;;;17.13;7.82;;;;;;;;;;4989792;28;20411;-70
2023/06/21 02:35:53;;;;;;;17.58;7.68;;;;;;;;;;4988020;28;20388;-70
2023/06/21 02:38:19;;;;;;;7.70;6.90;;;;;;;;;;4984655;28;20049;-71
2023/06/21 02:40:45;;;;;;;12.82;6.80;;;;;;;;;;4990237;28;20070;-70
2023/06/21 02:43:11;;;;;;;16.52;7.97;;;;;;;;;;4984420;28;20046;-69
2023/06/21 02:45:37;;;;;;;11.15;7.50;;;;;;;;;;4984348;28;20030;-69
2023/06/21 02:48:04;;;;;;;8.93;7.15;;;;;;;;;;4985289;28;20038;-71
2023/06/21 02:50:30;;;;;;;12.13;7.75;;;;;;;;;;4992703;28;20022;-70
2023/06/21 02:52:56;;;;;;;12.45;7.90;;;;;;;;;;4986431;28;20034;-71
2023/06/21 02:55:22;;;;;;;15.13;8.20;;;;;;;;;;4978982;28;20034;-70
2023/06/21 02:57:48;;;;;;;14.10;8.40;;;;;;;;;;4987866;28;20116;-70
2023/06/21 03:00:26;;;;;;;13.60;7.25;;;;;;;;;;4991295;28;20026;-70
2023/06/21 03:02:52;;;;;;;12.63;7.28;;;;;;;;;;4993415;28;20038;-70
2023/06/21 03:05:18;;;;;;;13.45;6.97;;;;;;;;;;4986604;28;20033;-70
2023/06/21 03:07:46;;;;;;;13.30;8.50;;;;;;;;;;4987562;28;20035;-68
2023/06/21 03:10:13;;;;;;;15.70;8.23;;;;;;;;;;4987951;28;20062;-68
2023/06/21 03:12:40;;;;;;;13.98;9.23;;;;;;;;;;4988031;28;20128;-68
2023/06/21 03:15:08;;;;;;;15.50;8.30;;;;;;;;;;4988827;28;20034;-69
2023/06/21 03:17:35;;;;;;;12.05;8.85;;;;;;;;;;4987807;28;20033;-69
2023/06/21 03:20:04;;;;;;;15.02;9.63;;;;;;;;;;4990940;28;20034;-68
2023/06/21 03:22:30;;;;;;;14.63;9.48;;;;;;;;;;4992113;28;20030;-68
2023/06/21 03:24:56;;;;;;;13.10;8.80;;;;;;;;;;4980998;28;20369;-68
2023/06/21 03:27:23;;;;;;;9.63;8.05;;;;;;;;;;4991339;28;20034;-68
2023/06/21 03:29:48;;;;;;;12.00;7.82;;;;;;;;;;4986994;28;20441;-69
2023/06/21 03:32:14;;;;;;;16.17;9.48;;;;;;;;;;4984993;28;20038;-68
2023/06/21 03:34:40;;;;;;;24.05;9.13;;;;;;;;;;4987935;28;20022;-70
2023/06/21 03:37:06;;;;;;;14.85;8.07;;;;;;;;;;4981501;28;20050;-69
2023/06/21 03:39:32;;;;;;;14.25;7.57;;;;;;;;;;4984681;28;20476;-70
2023/06/21 03:41:58;;;;;;;10.25;7.25;;;;;;;;;;4964293;28;20089;-68
2023/06/21 03:44:24;;;;;;;12.60;7.75;;;;;;;;;;4986999;28;20035;-68
2023/06/21 03:46:50;;;;;;;12.80;7.45;;;;;;;;;;4982421;28;20092;-68
2023/06/21 03:49:16;;;;;;;16.17;7.22;;;;;;;;;;4971659;28;20022;-69
2023/06/21 03:51:43;;;;;;;17.02;8.77;;;;;;;;;;4992773;28;20030;-69
2023/06/21 03:54:10;;;;;;;11.80;7.47;;;;;;;;;;4984241;28;20113;-69
2023/06/21 03:56:36;;;;;;;13.30;7.63;;;;;;;;;;4987438;28;20042;-68
2023/06/21 03:59:02;;;;;;;18.80;8.93;;;;;;;;;;4982798;28;20397;-70
2023/06/21 04:01:28;;;;;;;19.08;8.10;;;;;;;;;;4988387;28;20042;-68
2023/06/21 04:03:53;;;;;;;24.52;8.98;;;;;;;;;;4988485;28;20384;-68
2023/06/21 04:06:21;;;;;;;18.67;9.18;;;;;;;;;;4991307;28;20452;-68
2023/06/21 04:08:47;;;;;;;18.30;7.90;;;;;;;;;;4969815;28;20033;-68
2023/06/21 04:11:13;;;;;;;14.40;7.40;;;;;;;;;;4982331;28;20034;-69
2023/06/21 04:13:39;;;;;;;14.98;6.95;;;;;;;;;;4992886;28;20458;-68
2023/06/21 04:16:05;;;;;;;12.52;6.53;;;;;;;;;;4986655;28;20026;-68
2023/06/21 04:18:31;;;;;;;11.75;6.63;;;;;;;;;;4990616;28;20045;-68
2023/06/21 04:20:57;;;;;;;11.15;6.97;;;;;;;;;;4988900;28;20428;-68
2023/06/21 04:23:22;;;;;;;12.65;6.78;;;;;;;;;;4997662;28;20057;-68
2023/06/21 04:25:49;;;;;;;9.32;6.35;;;;;;;;;;4994023;28;20495;-68
2023/06/21 04:28:15;;;;;;;10.88;5.95;;;;;;;;;;4981221;28;20053;-69
2023/06/21 04:30:41;;;;;;;12.00;7.10;;;;;;;;;;4986031;28;20062;-68
2023/06/21 04:33:07;;;;;;;9.80;6.10;;;;;;;;;;4988053;28;20031;-69
2023/06/21 04:35:33;;;;;;;9.30;6.35;;;;;;;;;;4990477;28;20529;-68
2023/06/21 04:38:00;;;;;;;16.65;7.25;;;;;;;;;;4981317;28;20085;-68
2023/06/21 04:40:26;;;;;;;12.25;7.50;;;;;;;;;;4987681;28;20042;-68
2023/06/21 04:42:54;;;;;;;13.75;7.40;;;;;;;;;;4985436;28;20035;-68
2023/06/21 04:45:21;;;;;;;14.43;7.22;;;;;;;;;;4982439;28;20138;-68
2023/06/21 04:47:47;;;;;;;8.77;6.53;;;;;;;;;;4984806;28;20114;-69
2023/06/21 04:50:15;;;;;;;11.30;6.22;;;;;;;;;;4997827;28;20037;-69
2023/06/21 04:52:40;;;;;;;15.27;6.55;;;;;;;;;;4993348;28;20491;-67
2023/06/21 04:55:07;;;;;;;14.40;6.88;;;;;;;;;;4996207;28;20046;-68
2023/06/21 04:57:34;;;;;;;13.70;6.53;;;;;;;;;;4994957;28;20038;-68
2023/06/21 05:00:06;;;;;;;10.50;7.10;;;;;;;;;;5002055;28;20109;-67
2023/06/21 05:02:37;;;;;;;10.07;6.35;;;;;;;;;;5007724;28;20121;-70
2023/06/21 05:05:03;;;;;;;17.90;7.35;;;;;;;;;;4992309;28;20070;-68
2023/06/21 05:07:29;;;;;;;13.98;7.47;;;;;;;;;;4993772;28;20141;-67
2023/06/21 05:09:55;;;;;;;15.43;7.57;;;;;;;;;;4995487;28;20034;-68
2023/06/21 05:12:20;;;;;;;14.15;7.10;;;;;;;;;;4999843;28;20022;-68
2023/06/21 05:14:46;;;;;;;17.40;7.75;;;;;;;;;;4995061;28;20042;-67
2023/06/21 05:17:15;;;;;;;13.52;6.80;;;;;;;;;;4993251;28;20026;-67
2023/06/21 05:19:45;;;;;;;11.13;7.00;;;;;;;;;;4997618;28;20061;-68
2023/06/21 05:22:10;;;;;;;15.68;6.85;;;;;;;;;;4996335;28;20116;-67
2023/06/21 05:24:37;;;;;;;10.15;7.07;;;;;;;;;;4997691;28;20128;-68
2023/06/21 05:27:04;;;;;;;14.55;7.60;;;;;;;;;;4988668;28;20039;-68
2023/06/21 05:29:31;;;;;;;10.95;6.45;;;;;;;;;;4993863;28;20070;-68
2023/06/21 05:31:57;;;;;;;13.13;6.55;;;;;;;;;;4990774;28;20034;-67
2023/06/21 05:34:22;;;;;;;10.98;6.45;;;;;;;;;;4996002;28;20504;-68
2023/06/21 05:36:50;;;;;;;7.88;5.85;;;;;;;;;;5001040;28;20512;-69
2023/06/21 05:39:17;;;;;;;10.55;6.13;;;;;;;;;;4994048;28;20180;-67
2023/06/21 05:41:43;;;;;;;9.40;6.50;;;;;;;;;;5003506;28;20223;-67
2023/06/21 05:44:10;;;;;;;10.95;6.18;;;;;;;;;;4995871;28;20098;-67
2023/06/21 05:46:36;;;;;;;8.38;5.85;;;;;;;;;;4993216;28;20369;-69
2023/06/21 05:49:02;;;;;;;9.13;5.63;;;;;;;;;;4995341;28;20045;-68
2023/06/21 05:51:28;;;;;;;11.07;5.72;;;;;;;;;;4994701;28;20515;-67
2023/06/21 05:53:56;;;;;;;10.80;6.35;;;;;;;;;;4991275;28;20034;-68
2023/06/21 05:56:24;;;;;;;10.57;5.45;;;;;;;;;;4994408;28;20172;-68
2023/06/21 05:58:51;;;;;;;7.20;5.05;;;;;;;;;;4993332;28;20026;-68
2023/06/21 06:01:16;;;;;;;9.05;5.25;;;;;;;;;;4992432;28;20444;-68
2023/06/21 06:03:43;;;;;;;10.10;4.68;;;;;;;;;;4996670;28;20065;-67
2023/06/21 06:06:09;;;;;;;7.03;4.90;;;;;;;;;;5003072;28;20034;-68
2023/06/21 06:08:35;;;;;;;9.48;5.47;;;;;;;;;;4995546;28;20041;-68
2023/06/21 06:11:00;;;;;;;10.45;4.85;;;;;;;;;;4994470;28;20034;-69
2023/06/21 06:13:28;;;;;;;11.35;5.03;;;;;;;;;;4993083;28;20109;-67
2023/06/21 06:15:54;;;;;;;6.32;4.88;;;;;;;;;;4994387;28;20026;-67
2023/06/21 06:18:20;;;;;;;8.20;4.85;;;;;;;;;;4991138;28;20041;-67
2023/06/21 06:20:45;;;;;;;8.55;5.53;;;;;;;;;;4991642;28;20029;-68
2023/06/21 06:23:12;;;;;;;11.25;5.80;;;;;;;;;;4999054;28;20115;-69
2023/06/21 06:25:38;;;;;;;8.38;5.05;;;;;;;;;;4994247;28;20022;-68
2023/06/21 06:28:04;;;;;;;13.00;4.75;;;;;;;;;;5000447;28;20030;-70
2023/06/21 06:30:33;;;;;;;8.73;5.22;;;;;;;;;;5008617;28;20049;-70
2023/06/21 06:32:59;;;;;;;9.95;5.70;;;;;;;;;;4998010;28;20037;-69
2023/06/21 06:35:24;;;;;;;10.23;4.75;;;;;;;;;;4991690;28;20062;-68
2023/06/21 06:37:50;;;;;;;10.25;4.72;;;;;;;;;;4981910;28;20049;-70
2023/06/21 06:40:16;;;;;;;9.40;4.90;;;;;;;;;;4992955;28;20034;-71
2023/06/21 06:42:41;;;;;;;8.98;4.80;;;;;;;;;;4994571;28;20034;-71
2023/06/21 06:45:08;;;;;;;5.47;4.75;;;;;;;;;;5002283;28;20036;-73
2023/06/21 06:47:34;;;;;;;8.10;4.60;;;;;;;;;;4994059;28;20103;-71
2023/06/21 06:50:04;;;;;;;6.03;4.90;;;;;;;;;;4994802;28;20481;-70
2023/06/21 06:52:30;;;;;;;7.40;4.57;;;;;;;;;;4996507;28;20030;-70
2023/06/21 06:54:56;;;;;;;6.97;5.22;;;;;;;;;;4977280;28;20030;-71
2023/06/21 06:57:23;;;;;;;11.18;5.30;;;;;;;;;;4999855;28;20484;-70
2023/06/21 06:59:51;;;;;;;5.82;4.28;;;;;;;;;;4992171;28;20026;-71
2023/06/21 07:02:17;;;;;;;8.57;5.07;;;;;;;;;;4996735;28;20046;-70
2023/06/21 07:04:44;;;;;;;8.43;4.47;;;;;;;;;;4996201;28;20460;-71
2023/06/21 07:07:10;;;;;;;6.10;4.60;;;;;;;;;;4998181;28;20084;-70
2023/06/21 07:09:37;;;;;;;6.22;4.57;;;;;;;;;;4992958;28;20038;-70
2023/06/21 07:12:04;;;;;;;8.10;4.90;;;;;;;;;;4998435;28;20117;-70
2023/06/21 07:14:32;;;;;;;6.38;4.38;;;;;;;;;;4999219;28;20096;-70
2023/06/21 07:16:57;;;;;;;7.93;4.93;;;;;;;;;;4977218;28;20031;-69
2023/06/21 07:19:23;;;;;;;7.20;4.97;;;;;;;;;;4995870;28;20100;-70
2023/06/21 07:21:49;;;;;;;7.05;4.80;;;;;;;;;;4996045;28;20054;-69
2023/06/21 07:24:16;;;;;;;6.80;4.78;;;;;;;;;;4996929;28;20050;-72
2023/06/21 07:26:42;;;;;;;6.38;4.18;;;;;;;;;;4989454;28;20053;-70
2023/06/21 07:29:08;;;;;;;7.78;4.57;;;;;;;;;;4982609;28;20030;-70
2023/06/21 07:31:34;;;;;;;7.18;5.00;;;;;;;;;;4989783;28;20038;-71
2023/06/21 07:34:01;;;;;;;7.13;4.97;;;;;;;;;;4997994;28;20126;-70
2023/06/21 07:36:27;;;;;;;7.85;4.65;;;;;;;;;;4995409;28;20042;-70
2023/06/21 07:38:53;;;;;;;6.80;4.35;;;;;;;;;;4991690;28;20073;-71
2023/06/21 07:41:19;;;;;;;11.70;6.00;;;;;;;;;;4992432;28;20129;-70
2023/06/21 07:43:45;;;;;;;9.30;5.47;;;;;;;;;;5003711;28;20041;-71
2023/06/21 07:46:10;;;;;;;13.15;5.13;;;;;;;;;;4992765;28;20053;-70
2023/06/21 07:48:38;;;;;;;9.52;4.97;;;;;;;;;;4992767;28;20074;-70
2023/06/21 07:51:04;;;;;;;7.85;5.07;;;;;;;;;;5006896;28;20062;-70
2023/06/21 07:53:31;;;;;;;12.70;5.07;;;;;;;;;;4995479;28;20393;-70
2023/06/21 07:55:56;;;;;;;9.25;4.53;;;;;;;;;;4992521;28;20173;-70
2023/06/21 07:58:22;;;;;;;10.43;4.55;;;;;;;;;;4994723;28;20458;-69
2023/06/21 08:00:48;;;;;;;6.80;4.32;;;;;;;;;;4990895;28;20050;-71
2023/06/21 08:03:14;;;;;;;5.47;4.38;;;;;;;;;;4996311;28;20026;-71
2023/06/21 08:05:40;;;;;;;7.93;5.22;;;;;;;;;;4995028;28;20380;-71
2023/06/21 08:08:06;;;;;;;9.82;7.95;;;;;;;;;;4991375;28;20449;-70
2023/06/21 08:10:33;;;;;;;6.25;5.00;;;;;;;;;;5002289;28;20030;-71
2023/06/21 08:12:59;;;;;;;7.70;4.80;;;;;;;;;;4995851;28;20130;-71
2023/06/21 08:15:25;;;;;;;8.18;6.53;;;;;;;;;;4991070;28;20054;-70
2023/06/21 08:17:51;;;;;;;8.00;4.65;;;;;;;;;;4995732;28;20026;-70
2023/06/21 08:20:18;;;;;;;5.95;4.65;;;;;;;;;;4992441;28;20096;-71
2023/06/21 08:22:45;;;;;;;5.32;4.57;;;;;;;;;;4997260;28;20014;-71
2023/06/21 08:25:11;;;;;;;9.93;5.30;;;;;;;;;;4994554;28;20138;-71
2023/06/21 08:27:38;;;;;;;12.77;6.00;;;;;;;;;;4996188;28;20033;-71
2023/06/21 08:30:04;;;;;;;6.22;4.70;;;;;;;;;;4994200;28;20085;-71
2023/06/21 08:32:30;;;;;;;6.20;4.57;;;;;;;;;;4996171;28;20053;-71
2023/06/21 08:34:55;;;;;;;10.65;4.88;;;;;;;;;;4993363;28;20062;-71
2023/06/21 08:37:28;;;;;;;8.07;4.97;;;;;;;;;;4999336;28;20120;-71
2023/06/21 08:39:56;;;;;;;11.90;6.57;;;;;;;;;;4996385;28;20565;-71
2023/06/21 08:42:26;;;;;;;5.70;4.63;;;;;;;;;;4993356;28;20023;-71
2023/06/21 08:44:56;;;;;;;6.93;4.82;;;;;;;;;;4990123;28;20065;-70
2023/06/21 08:47:28;;;;;;;6.10;4.75;;;;;;;;;;4995566;28;20133;-70
2023/06/21 08:49:57;;;;;;;7.85;5.18;;;;;;;;;;4995185;28;20050;-71
2023/06/21 08:52:26;;;;;;;6.80;4.90;;;;;;;;;;4993555;28;20021;-71
2023/06/21 08:55:03;;;;;;;7.70;4.65;;;;;;;;;;4998658;28;20038;-71
2023/06/21 08:57:32;;;;;;;9.95;5.13;;;;;;;;;;4997492;28;20202;-70
2023/06/21 09:00:07;;;;;;;6.38;4.50;;;;;;;;;;4991218;28;20050;-71
2023/06/21 09:02:45;;;;;;;9.15;4.72;;;;;;;;;;4994452;28;20073;-71
2023/06/21 09:05:18;;;;;;;9.43;4.97;;;;;;;;;;4988744;28;20046;-71
2023/06/21 09:07:45;;;;;;;6.45;5.18;;;;;;;;;;4996571;28;20440;-71
2023/06/21 09:10:15;;;;;;;7.05;4.50;;;;;;;;;;4987382;28;20024;-71
2023/06/21 09:12:43;;;;;;;6.13;4.90;;;;;;;;;;4991347;28;20030;-71
2023/06/21 09:15:10;;;;;;;7.03;4.93;;;;;;;;;;4995004;28;20039;-71
2023/06/21 09:17:37;;;;;;;9.38;5.20;;;;;;;;;;4994910;28;20488;-71
2023/06/21 09:20:03;;;;;;;6.65;5.10;;;;;;;;;;4996122;28;20022;-71
2023/06/21 09:22:30;;;;;;;13.30;6.15;;;;;;;;;;4995258;28;20060;-71
2023/06/21 09:24:56;;;;;;;6.53;5.60;;;;;;;;;;4994636;28;20692;-71
2023/06/21 09:27:22;;;;;;;8.68;5.10;;;;;;;;;;4991322;28;20046;-72
2023/06/21 09:29:49;;;;;;;5.20;4.70;;;;;;;;;;4996080;28;20547;-70
2023/06/21 09:32:15;;;;;;;8.18;4.75;;;;;;;;;;4993146;28;20030;-71
2023/06/21 09:34:41;;;;;;;9.40;5.07;;;;;;;;;;4995503;28;20018;-71
2023/06/21 09:37:07;;;;;;;5.88;5.05;;;;;;;;;;4995664;28;20452;-71
2023/06/21 09:39:33;;;;;;;9.05;5.28;;;;;;;;;;4991948;28;20030;-71
2023/06/21 09:41:59;;;;;;;9.63;5.20;;;;;;;;;;4991347;28;20065;-71
2023/06/21 09:44:24;;;;;;;7.70;5.30;;;;;;;;;;4995124;28;20044;-71
2023/06/21 09:46:58;;;;;;;7.50;5.00;;;;;;;;;;4986373;28;20026;-72
2023/06/21 09:49:27;;;;;;;8.02;5.43;;;;;;;;;;4989198;28;20404;-72
2023/06/21 09:51:54;;;;;;;9.38;5.22;;;;;;;;;;4985165;28;20026;-73
2023/06/21 09:54:20;;;;;;;10.05;5.13;;;;;;;;;;4990242;28;20049;-73
2023/06/21 09:56:46;;;;;;;8.98;6.63;;;;;;;;;;4990994;28;20034;-71
2023/06/21 09:59:15;;;;;;;6.82;5.80;;;;;;;;;;4989085;28;20056;-72
2023/06/21 10:01:46;;;;;;;8.02;5.43;;;;;;;;;;4988269;28;20042;-72
2023/06/21 10:04:14;;;;;;;6.18;5.07;;;;;;;;;;4986458;28;20046;-72
2023/06/21 10:06:55;;;;;;;12.05;5.13;;;;;;;;;;4989366;28;20037;-74
2023/06/21 10:09:21;;;;;;;6.95;5.25;;;;;;;;;;4987769;28;20046;-71
2023/06/21 10:11:49;;;;;;;8.80;5.13;;;;;;;;;;4992257;28;20022;-71
2023/06/21 10:14:31;;;;;;;7.80;4.95;;;;;;;;;;4990689;28;20531;-71
2023/06/21 10:16:57;;;;;;;9.30;5.45;;;;;;;;;;4987116;28;20359;-72
2023/06/21 10:19:25;;;;;;;9.73;5.30;;;;;;;;;;4992579;28;20043;-72
2023/06/21 10:22:08;;;;;;;6.53;4.53;;;;;;;;;;4991493;28;20041;-73
2023/06/21 10:24:50;;;;;;;7.82;5.18;;;;;;;;;;5000236;28;20038;-72
2023/06/21 10:27:20;;;;;;;7.32;5.38;;;;;;;;;;5001826;28;20078;-73
2023/06/21 10:29:54;;;;;;;7.93;5.72;;;;;;;;;;4992855;28;20045;-73
2023/06/21 10:32:21;;;;;;;8.98;5.68;;;;;;;;;;4992669;28;20110;-72
2023/06/21 10:34:55;;;;;;;7.43;5.57;;;;;;;;;;4990322;28;20095;-72
2023/06/21 10:37:39;;;;;;;11.98;5.35;;;;;;;;;;4994889;28;20034;-73
2023/06/21 10:40:16;;;;;;;8.63;5.70;;;;;;;;;;4988233;28;20050;-72
2023/06/21 10:42:43;;;;;;;8.75;5.85;;;;;;;;;;5011090;28;20057;-71
2023/06/21 10:45:13;;;;;;;7.72;5.70;;;;;;;;;;4976312;28;20042;-70
2023/06/21 10:47:40;;;;;;;7.22;5.07;;;;;;;;;;4991450;28;20484;-71
2023/06/21 10:50:08;;;;;;;6.57;5.18;;;;;;;;;;4985596;28;20034;-70
2023/06/21 10:52:35;;;;;;;7.53;5.40;;;;;;;;;;4994742;28;20036;-71
2023/06/21 10:55:02;;;;;;;9.35;6.25;;;;;;;;;;4992675;28;20030;-71
2023/06/21 10:57:31;;;;;;;6.78;5.60;;;;;;;;;;4994640;28;20037;-71
2023/06/21 11:00:05;;;;;;;6.88;5.25;;;;;;;;;;4987125;28;20037;-71
2023/06/21 11:02:33;;;;;;;8.00;5.88;;;;;;;;;;4995806;28;20034;-72
2023/06/21 11:05:17;;;;;;;6.85;5.80;;;;;;;;;;4987284;28;20057;-71
2023/06/21 11:08:01;;;;;;;8.52;5.93;;;;;;;;;;4992040;28;20022;-70
2023/06/21 11:10:50;;;;;;;10.38;6.10;;;;;;;;;;4990298;28;20046;-71
2023/06/21 11:13:33;;;;;;;9.00;6.05;;;;;;;;;;4999165;28;20035;-72
2023/06/21 11:16:17;;;;;;;7.70;5.70;;;;;;;;;;4994394;28;20034;-72
2023/06/21 11:18:48;;;;;;;7.22;5.55;;;;;;;;;;4992690;28;20041;-72
2023/06/21 11:21:14;;;;;;;8.63;5.75;;;;;;;;;;4984977;28;20117;-72
2023/06/21 11:23:51;;;;;;;8.13;5.82;;;;;;;;;;4993454;28;20145;-71
2023/06/21 11:26:18;;;;;;;9.45;6.00;;;;;;;;;;4991600;28;20127;-71
2023/06/21 11:28:49;;;;;;;8.63;6.00;;;;;;;;;;4991589;28;20223;-71
2023/06/21 11:31:17;;;;;;;8.17;6.00;;;;;;;;;;5000556;28;20049;-71
2023/06/21 11:33:48;;;;;;;6.88;5.28;;;;;;;;;;4991592;28;20022;-71
2023/06/21 11:36:17;;;;;;;8.38;5.60;;;;;;;;;;4993723;28;20114;-71
2023/06/21 11:38:50;;;;;;;8.05;5.85;;;;;;;;;;5000638;28;20392;-73
2023/06/21 11:41:45;;;;;;;8.00;5.90;;;;;;;;;;4995085;28;20558;-71
2023/06/21 11:44:19;;;;;;;8.48;5.90;;;;;;;;;;4991938;28;20038;-72
2023/06/21 11:46:45;;;;;;;9.88;6.13;;;;;;;;;;4990100;28;20157;-71
2023/06/21 11:49:12;;;;;;;7.30;5.70;;;;;;;;;;4990950;28;20158;-71
2023/06/21 11:51:51;;;;;;;6.55;5.85;;;;;;;;;;4994780;28;20526;-72
2023/06/21 11:54:36;;;;;;;7.05;5.95;;;;;;;;;;4989628;28;20556;-71
2023/06/21 11:57:06;;;;;;;7.43;5.90;;;;;;;;;;4993563;28;20060;-73
2023/06/21 11:59:34;;;;;;;7.95;5.80;;;;;;;;;;4993389;28;20554;-72
2023/06/21 12:02:12;;;;;;;14.10;7.45;;;;;;;;;;4995483;28;20400;-72
2023/06/21 12:04:40;;;;;;;9.13;5.57;;;;;;;;;;4994258;28;20030;-72
2023/06/21 12:07:06;;;;;;;8.50;5.97;;;;;;;;;;4991843;28;20088;-73
2023/06/21 12:09:31;;;;;;;11.32;6.05;;;;;;;;;;4992356;28;20101;-72
2023/06/21 12:11:58;;;;;;;8.75;6.07;;;;;;;;;;4995118;28;20014;-73
2023/06/21 12:14:25;;;;;;;11.25;5.97;;;;;;;;;;4991532;28;20034;-72
2023/06/21 12:16:50;;;;;;;8.55;6.22;;;;;;;;;;5000837;28;20129;-72
2023/06/21 12:19:21;;;;;;;6.90;5.55;;;;;;;;;;4999951;28;20045;-73
2023/06/21 12:21:48;;;;;;;6.70;6.00;;;;;;;;;;4996249;28;20037;-72
2023/06/21 12:24:25;;;;;;;8.57;5.78;;;;;;;;;;4992167;28;20120;-73
2023/06/21 12:26:53;;;;;;;8.35;5.70;;;;;;;;;;4993994;28;20526;-72
2023/06/21 12:29:19;;;;;;;7.70;6.18;;;;;;;;;;4999426;28;20109;-72
2023/06/21 12:31:45;;;;;;;7.13;5.70;;;;;;;;;;4992913;28;20133;-74
2023/06/21 12:34:15;;;;;;;8.77;6.05;;;;;;;;;;4993031;28;20109;-73
2023/06/21 12:36:44;;;;;;;6.50;5.18;;;;;;;;;;4992085;28;20071;-72
2023/06/21 12:39:12;;;;;;;7.30;5.65;;;;;;;;;;4986596;28;20034;-71
2023/06/21 12:41:43;;;;;;;6.60;5.20;;;;;;;;;;4995212;28;20065;-74
2023/06/21 12:44:22;;;;;;;7.57;5.85;;;;;;;;;;4986811;28;20088;-72
2023/06/21 12:46:48;;;;;;;8.45;5.97;;;;;;;;;;4990020;28;20438;-74
2023/06/21 12:49:16;;;;;;;8.48;5.47;;;;;;;;;;4999350;28;20026;-74
2023/06/21 12:51:46;;;;;;;6.65;5.57;;;;;;;;;;4992926;28;20120;-73
2023/06/21 12:54:21;;;;;;;10.18;5.93;;;;;;;;;;4987662;28;20039;-71
2023/06/21 12:56:50;;;;;;;7.88;5.93;;;;;;;;;;4994032;28;20034;-71
2023/06/21 12:59:17;;;;;;;7.15;5.80;;;;;;;;;;4992560;28;20469;-72
2023/06/21 13:01:43;;;;;;;7.85;5.60;;;;;;;;;;4997420;28;20038;-71
2023/06/21 13:04:14;;;;;;;8.82;6.18;;;;;;;;;;4990985;28;20030;-70
2023/06/21 13:06:41;;;;;;;10.00;6.00;;;;;;;;;;4996637;28;20038;-71
2023/06/21 13:09:08;;;;;;;9.73;5.90;;;;;;;;;;4990668;28;20132;-74
2023/06/21 13:11:34;;;;;;;7.13;5.63;;;;;;;;;;4997753;28;20025;-71
2023/06/21 13:14:02;;;;;;;8.25;5.50;;;;;;;;;;4994165;28;20014;-71
2023/06/21 13:16:27;;;;;;;7.35;6.10;;;;;;;;;;4990992;28;20457;-71
2023/06/21 13:18:54;;;;;;;6.45;5.75;;;;;;;;;;4995067;28;20080;-72
2023/06/21 13:21:25;;;;;;;6.18;4.80;;;;;;;;;;4985846;28;20515;-72
2023/06/21 13:23:51;;;;;;;6.95;4.90;;;;;;;;;;4991454;28;20073;-72
2023/06/21 13:26:18;;;;;;;8.48;4.85;;;;;;;;;;4991288;28;20506;-72
2023/06/21 13:28:44;;;;;;;7.18;5.13;;;;;;;;;;4992784;28;20049;-72
2023/06/21 13:31:12;;;;;;;5.97;4.57;;;;;;;;;;4996717;28;20510;-73
2023/06/21 13:33:39;;;;;;;8.15;4.80;;;;;;;;;;4990896;28;20361;-74
2023/06/21 13:36:06;;;;;;;7.78;4.63;;;;;;;;;;4997120;28;20030;-75
2023/06/21 13:38:33;;;;;;;6.72;4.60;;;;;;;;;;4983705;28;20083;-73
2023/06/21 13:40:59;;;;;;;6.00;4.90;;;;;;;;;;4981603;28;20027;-73
2023/06/21 13:43:28;;;;;;;7.85;5.47;;;;;;;;;;4986241;28;20042;-72
2023/06/21 13:45:53;;;;;;;6.25;5.15;;;;;;;;;;4983411;28;20018;-72
2023/06/21 13:48:19;;;;;;;7.28;4.70;;;;;;;;;;4987443;28;20046;-72
2023/06/21 13:50:45;;;;;;;6.25;4.63;;;;;;;;;;4985977;28;20511;-75
2023/06/21 13:53:10;;;;;;;9.35;5.40;;;;;;;;;;4986446;28;20034;-72
2023/06/21 13:55:36;;;;;;;6.30;4.72;;;;;;;;;;4990095;28;20038;-74
2023/06/21 13:58:03;;;;;;;6.65;5.00;;;;;;;;;;4988208;28;20045;-71
2023/06/21 14:00:29;;;;;;;8.02;5.32;;;;;;;;;;4986356;28;20534;-73
2023/06/21 14:02:56;;;;;;;9.18;5.00;;;;;;;;;;4990678;28;20089;-73
2023/06/21 14:05:23;;;;;;;6.47;4.70;;;;;;;;;;4989744;28;20460;-75
2023/06/21 14:07:50;;;;;;;7.13;4.68;;;;;;;;;;4991347;28;20062;-74
2023/06/21 14:10:16;;;;;;;6.90;4.90;;;;;;;;;;4979412;28;20114;-72
2023/06/21 14:12:43;;;;;;;5.43;4.50;;;;;;;;;;4985129;28;20506;-74
2023/06/21 14:15:09;;;;;;;7.60;4.88;;;;;;;;;;4989046;28;20019;-75
2023/06/21 14:17:35;;;;;;;6.35;4.68;;;;;;;;;;4989776;28;20034;-75
2023/06/21 14:20:04;;;;;;;8.23;4.93;;;;;;;;;;4986695;28;20026;-74
2023/06/21 14:22:30;;;;;;;6.38;4.32;;;;;;;;;;4989897;28;20026;-75
2023/06/21 14:24:56;;;;;;;6.47;4.70;;;;;;;;;;4990519;28;20033;-73
2023/06/21 14:27:26;;;;;;;6.72;4.43;;;;;;;;;;4987716;28;20046;-73
2023/06/21 14:30:01;;;;;;;7.47;4.93;;;;;;;;;;4993445;28;20052;-72
2023/06/21 14:32:29;;;;;;;6.30;4.70;;;;;;;;;;4993759;28;20043;-74
2023/06/21 14:34:55;;;;;;;6.63;4.95;;;;;;;;;;4997079;28;20609;-74
2023/06/21 14:37:20;;;;;;;5.35;4.65;;;;;;;;;;4999885;28;20125;-74
2023/06/21 14:39:46;;;;;;;5.78;5.07;;;;;;;;;;4982045;28;20279;-74
2023/06/21 14:42:13;;;;;;;9.90;5.30;;;;;;;;;;4989504;28;20042;-73
2023/06/21 14:44:39;;;;;;;6.57;4.70;;;;;;;;;;4984903;28;20029;-75